createdAt,value
2017-09-17T00:00:15.681Z,92.30
2017-09-17T00:03:18.034Z,92.30
2017-09-17T00:06:19.987Z,92.60
2017-09-17T00:09:23.048Z,92.30
2017-09-17T00:12:25.032Z,92.30
2017-09-17T00:15:27.447Z,92.50
2017-09-17T00:18:29.503Z,92.50
2017-09-17T00:21:31.856Z,92.60
2017-09-17T00:24:33.808Z,92.50
2017-09-17T00:27:36.109Z,92.50
2017-09-17T00:30:38.037Z,92.60
2017-09-17T00:33:40.359Z,92.70
2017-09-17T00:36:42.320Z,92.70
2017-09-17T00:39:44.681Z,92.70
2017-09-17T00:42:46.767Z,92.70
2017-09-17T00:45:49.212Z,92.70
2017-09-17T00:48:51.251Z,92.70
2017-09-17T00:51:53.590Z,92.70
2017-09-17T00:54:55.515Z,92.80
2017-09-17T00:57:58.620Z,92.80
2017-09-17T01:01:00.675Z,92.80
2017-09-17T01:04:03.012Z,92.80
2017-09-17T01:07:04.947Z,92.80
2017-09-17T01:10:07.325Z,92.80
2017-09-17T01:13:09.391Z,92.90
2017-09-17T01:16:11.746Z,92.90
2017-09-17T01:19:13.678Z,92.90
2017-09-17T01:22:16.045Z,93.00
2017-09-17T01:25:17.971Z,93.00
2017-09-17T01:28:20.275Z,93.00
2017-09-17T01:31:22.292Z,92.90
2017-09-17T01:34:24.552Z,92.90
2017-09-17T01:37:26.627Z,93.00
2017-09-17T01:40:29.156Z,93.00
2017-09-17T01:43:31.100Z,93.00
2017-09-17T01:46:33.474Z,93.00
2017-09-17T01:49:35.398Z,92.90
2017-09-17T01:52:37.758Z,92.90
2017-09-17T01:55:39.717Z,92.90
2017-09-17T01:58:42.071Z,92.90
2017-09-17T02:01:43.999Z,93.00
2017-09-17T02:04:47.106Z,93.00
2017-09-17T02:07:49.162Z,93.00
2017-09-17T02:10:51.519Z,93.00
2017-09-17T02:13:53.660Z,93.00
2017-09-17T02:16:56.016Z,93.00
2017-09-17T02:19:57.947Z,93.00
2017-09-17T02:23:00.333Z,93.00
2017-09-17T02:26:02.383Z,93.00
2017-09-17T02:29:04.727Z,93.00
2017-09-17T02:32:06.669Z,93.00
2017-09-17T02:35:09.142Z,93.00
2017-09-17T02:38:11.086Z,93.10
2017-09-17T02:41:13.440Z,93.10
2017-09-17T02:44:15.377Z,93.10
2017-09-17T02:47:17.749Z,93.10
2017-09-17T02:50:19.694Z,93.10
2017-09-17T02:53:22.065Z,93.10
2017-09-17T02:56:24.108Z,93.20
2017-09-17T02:59:26.588Z,93.30
2017-09-17T03:02:28.710Z,93.30
2017-09-17T03:05:31.169Z,93.30
2017-09-17T03:08:33.105Z,93.50
2017-09-17T03:11:35.488Z,93.50
2017-09-17T03:14:37.414Z,93.40
2017-09-17T03:17:39.783Z,93.40
2017-09-17T03:20:41.711Z,93.30
2017-09-17T03:23:44.089Z,93.20
2017-09-17T03:26:46.022Z,93.20
2017-09-17T03:29:48.402Z,93.20
2017-09-17T03:32:50.440Z,93.20
2017-09-17T03:35:52.818Z,93.20
2017-09-17T03:38:54.747Z,93.60
2017-09-17T03:41:57.108Z,93.30
2017-09-17T03:44:59.049Z,93.30
2017-09-17T03:48:01.354Z,93.30
2017-09-17T03:51:03.361Z,93.40
2017-09-17T03:54:05.719Z,93.40
2017-09-17T03:57:07.670Z,93.30
2017-09-17T04:00:10.126Z,93.40
2017-09-17T04:03:12.066Z,93.40
2017-09-17T04:06:14.482Z,93.30
2017-09-17T04:09:16.469Z,93.30
2017-09-17T04:12:18.847Z,93.20
2017-09-17T04:15:20.872Z,93.20
2017-09-17T04:18:23.269Z,93.20
2017-09-17T04:21:25.391Z,93.10
2017-09-17T04:24:27.881Z,93.20
2017-09-17T04:27:29.828Z,93.20
2017-09-17T04:30:32.254Z,93.30
2017-09-17T04:33:34.220Z,93.30
2017-09-17T04:36:36.559Z,93.20
2017-09-17T04:39:38.514Z,93.20
2017-09-17T04:42:41.798Z,93.20
2017-09-17T04:45:44.562Z,93.10
2017-09-17T04:48:46.929Z,93.10
2017-09-17T04:51:48.988Z,93.10
2017-09-17T04:54:51.448Z,93.10
2017-09-17T04:57:53.482Z,93.10
2017-09-17T05:00:56.521Z,93.00
2017-09-17T05:03:59.212Z,92.90
2017-09-17T05:07:01.579Z,92.80
2017-09-17T05:10:03.521Z,92.80
2017-09-17T05:13:05.889Z,92.80
2017-09-17T05:16:07.950Z,92.80
2017-09-17T05:19:10.308Z,92.80
2017-09-17T05:22:13.159Z,92.90
2017-09-17T05:25:15.448Z,92.90
2017-09-17T05:28:17.668Z,92.80
2017-09-17T05:31:20.135Z,92.80
2017-09-17T05:34:22.074Z,92.80
2017-09-17T05:37:25.235Z,92.80
2017-09-17T05:40:27.248Z,92.70
2017-09-17T05:43:29.579Z,92.80
2017-09-17T05:46:31.613Z,92.80
2017-09-17T05:49:33.983Z,92.80
2017-09-17T05:52:35.927Z,92.70
2017-09-17T05:55:38.262Z,92.60
2017-09-17T05:58:40.219Z,92.50
2017-09-17T06:01:42.590Z,92.60
2017-09-17T06:04:44.628Z,92.40
2017-09-17T06:07:46.983Z,92.40
2017-09-17T06:10:48.933Z,92.50
2017-09-17T06:13:51.282Z,92.60
2017-09-17T06:16:53.229Z,92.60
2017-09-17T06:19:55.590Z,92.50
2017-09-17T06:22:57.590Z,92.00
2017-09-17T06:25:59.898Z,91.90
2017-09-17T06:29:01.945Z,91.90
2017-09-17T06:32:04.323Z,91.80
2017-09-17T06:35:06.349Z,91.70
2017-09-17T06:38:08.875Z,91.70
2017-09-17T06:41:10.810Z,91.70
2017-09-17T06:44:13.125Z,91.30
2017-09-17T06:47:15.171Z,90.90
2017-09-17T06:50:17.736Z,90.70
2017-09-17T06:53:19.673Z,90.30
2017-09-17T06:56:22.158Z,90.10
2017-09-17T06:59:24.201Z,89.10
2017-09-17T07:02:26.552Z,88.50
2017-09-17T07:05:28.615Z,88.10
2017-09-17T07:08:30.968Z,87.40
2017-09-17T07:11:33.013Z,87.00
2017-09-17T07:14:35.302Z,86.60
2017-09-17T07:17:37.325Z,85.80
2017-09-17T07:20:39.685Z,85.70
2017-09-17T07:23:41.733Z,85.60
2017-09-17T07:26:44.080Z,84.40
2017-09-17T07:29:46.019Z,83.10
2017-09-17T07:32:48.397Z,81.80
2017-09-17T07:35:50.352Z,80.30
2017-09-17T07:38:53.496Z,76.60
2017-09-17T07:41:55.562Z,76.60
2017-09-17T07:44:57.862Z,75.10
2017-09-17T07:47:59.888Z,72.70
2017-09-17T07:51:02.245Z,69.70
2017-09-17T07:54:04.279Z,66.70
2017-09-17T07:57:06.661Z,63.20
2017-09-17T08:00:08.688Z,59.50
2017-09-17T08:03:11.060Z,56.10
2017-09-17T08:06:12.992Z,53.30
2017-09-17T08:09:15.334Z,50.70
2017-09-17T08:12:17.289Z,47.80
2017-09-17T08:15:19.586Z,45.90
2017-09-17T08:18:21.546Z,43.80
2017-09-17T08:21:23.961Z,41.60
2017-09-17T08:24:25.999Z,40.80
2017-09-17T08:27:28.368Z,38.80
2017-09-17T08:30:30.348Z,36.00
2017-09-17T08:33:33.681Z,35.30
2017-09-17T08:36:35.616Z,34.70
2017-09-17T08:39:38.724Z,33.40
2017-09-17T08:42:40.780Z,33.40
2017-09-17T08:45:43.085Z,31.80
2017-09-17T08:48:46.708Z,32.60
2017-09-17T08:51:49.068Z,32.60
2017-09-17T08:54:51.141Z,32.00
2017-09-17T08:57:53.478Z,31.40
2017-09-17T09:00:55.423Z,31.10
2017-09-17T09:03:57.799Z,29.50
2017-09-17T09:06:59.758Z,29.20
2017-09-17T09:10:02.102Z,29.40
2017-09-17T09:13:04.047Z,28.40
2017-09-17T09:16:06.391Z,28.30
2017-09-17T09:19:08.329Z,28.20
2017-09-17T09:22:10.691Z,29.00
2017-09-17T09:25:12.645Z,29.00
2017-09-17T09:28:15.009Z,29.70
2017-09-17T09:31:17.048Z,29.40
2017-09-17T09:34:19.421Z,27.50
2017-09-17T09:37:21.482Z,26.80
2017-09-17T09:40:23.927Z,27.00
2017-09-17T09:43:25.973Z,26.20
2017-09-17T09:46:28.384Z,25.40
2017-09-17T09:49:31.098Z,27.90
2017-09-17T09:52:33.451Z,27.60
2017-09-17T09:55:35.508Z,28.50
2017-09-17T09:58:37.852Z,29.50
2017-09-17T10:01:39.875Z,29.00
2017-09-17T10:04:42.962Z,27.30
2017-09-17T10:07:44.923Z,27.30
2017-09-17T10:10:47.292Z,27.00
2017-09-17T10:13:49.223Z,28.90
2017-09-17T10:16:51.599Z,29.10
2017-09-17T10:19:53.569Z,28.50
2017-09-17T10:22:55.884Z,27.90
2017-09-17T10:25:57.831Z,27.20
2017-09-17T10:29:00.202Z,24.80
2017-09-17T10:32:02.137Z,25.20
2017-09-17T10:35:04.504Z,25.20
2017-09-17T10:38:06.444Z,27.10
2017-09-17T10:41:08.803Z,26.50
2017-09-17T10:44:10.774Z,26.20
2017-09-17T10:47:13.763Z,26.10
2017-09-17T10:50:15.791Z,24.10
2017-09-17T10:53:18.152Z,24.30
2017-09-17T10:56:20.293Z,24.60
2017-09-17T10:59:22.655Z,23.90
2017-09-17T11:02:24.601Z,24.60
2017-09-17T11:05:27.166Z,24.50
2017-09-17T11:08:29.125Z,25.00
2017-09-17T11:11:31.485Z,24.40
2017-09-17T11:14:33.543Z,23.90
2017-09-17T11:17:35.929Z,23.50
2017-09-17T11:20:38.639Z,26.40
2017-09-17T11:23:40.991Z,25.80
2017-09-17T11:26:43.048Z,27.80
2017-09-17T11:29:46.431Z,29.10
2017-09-17T11:32:48.390Z,27.40
2017-09-17T11:35:51.186Z,25.10
2017-09-17T11:38:53.124Z,22.70
2017-09-17T11:41:56.104Z,21.60
2017-09-17T11:44:58.038Z,21.50
2017-09-17T11:48:00.492Z,22.10
2017-09-17T11:51:02.537Z,23.80
2017-09-17T11:54:04.894Z,25.10
2017-09-17T11:57:06.832Z,23.70
2017-09-17T12:00:09.200Z,23.60
2017-09-17T12:03:11.222Z,23.40
2017-09-17T12:06:13.626Z,21.70
2017-09-17T12:09:15.565Z,21.10
2017-09-17T12:12:17.913Z,22.60
2017-09-17T12:15:19.865Z,23.20
2017-09-17T12:18:22.785Z,22.60
2017-09-17T12:21:25.888Z,20.20
2017-09-17T12:24:28.254Z,20.20
2017-09-17T12:27:30.307Z,21.80
2017-09-17T12:30:32.601Z,23.60
2017-09-17T12:33:34.623Z,25.30
2017-09-17T12:36:36.962Z,27.10
2017-09-17T12:39:38.914Z,25.30
2017-09-17T12:42:42.037Z,25.40
2017-09-17T12:45:44.146Z,26.20
2017-09-17T12:48:46.523Z,26.70
2017-09-17T12:51:48.553Z,27.60
2017-09-17T12:54:50.907Z,29.20
2017-09-17T12:57:52.858Z,26.80
2017-09-17T13:00:55.215Z,23.50
2017-09-17T13:03:57.150Z,22.30
2017-09-17T13:06:59.536Z,21.20
2017-09-17T13:10:01.515Z,20.90
2017-09-17T13:13:03.827Z,23.80
2017-09-17T13:16:05.763Z,25.40
2017-09-17T13:19:08.128Z,23.60
2017-09-17T13:22:10.075Z,21.30
2017-09-17T13:25:12.428Z,19.30
2017-09-17T13:28:14.391Z,18.60
2017-09-17T13:31:16.747Z,20.80
2017-09-17T13:34:18.697Z,23.00
2017-09-17T13:37:21.066Z,25.50
2017-09-17T13:40:23.101Z,27.90
2017-09-17T13:43:25.471Z,31.30
2017-09-17T13:46:27.421Z,33.80
2017-09-17T13:49:29.795Z,36.20
2017-09-17T13:52:31.732Z,36.70
2017-09-17T13:55:34.214Z,37.50
2017-09-17T13:58:36.252Z,39.20
2017-09-17T14:01:39.502Z,39.60
2017-09-17T14:04:42.293Z,41.40
2017-09-17T14:07:44.753Z,41.40
2017-09-17T14:10:46.790Z,40.20
2017-09-17T14:13:50.456Z,35.00
2017-09-17T14:16:54.046Z,26.20
2017-09-17T14:19:57.157Z,25.00
2017-09-17T14:23:00.139Z,25.00
2017-09-17T14:26:02.489Z,25.40
2017-09-17T14:29:04.544Z,23.80
2017-09-17T14:32:06.896Z,23.20
2017-09-17T14:35:08.832Z,21.90
2017-09-17T14:38:11.205Z,21.40
2017-09-17T14:41:13.322Z,21.10
2017-09-17T14:44:16.433Z,20.70
2017-09-17T14:47:18.483Z,20.70
2017-09-17T14:50:20.808Z,21.80
2017-09-17T14:53:22.762Z,21.90
2017-09-17T14:56:25.053Z,21.30
2017-09-17T14:59:27.090Z,22.00
2017-09-17T15:02:29.454Z,25.10
2017-09-17T15:05:31.395Z,26.70
2017-09-17T15:08:33.781Z,28.20
2017-09-17T15:11:35.838Z,29.30
2017-09-17T15:14:38.174Z,29.80
2017-09-17T15:17:40.904Z,29.50
2017-09-17T15:20:43.271Z,29.40
2017-09-17T15:23:45.288Z,31.00
2017-09-17T15:26:47.662Z,35.20
2017-09-17T15:29:49.611Z,36.50
2017-09-17T15:32:51.887Z,35.80
2017-09-17T15:35:53.893Z,40.70
2017-09-17T15:38:56.239Z,45.00
2017-09-17T15:41:58.215Z,48.80
2017-09-17T15:45:00.569Z,51.70
2017-09-17T15:48:02.608Z,55.60
2017-09-17T15:51:04.973Z,58.90
2017-09-17T15:54:07.089Z,61.20
2017-09-17T15:57:10.296Z,67.00
2017-09-17T16:00:12.315Z,66.90
2017-09-17T16:03:15.438Z,63.50
2017-09-17T16:06:17.493Z,63.50
2017-09-17T16:09:19.839Z,66.80
2017-09-17T16:12:21.775Z,69.50
2017-09-17T16:15:24.250Z,71.30
2017-09-17T16:18:26.198Z,73.20
2017-09-17T16:21:28.560Z,77.00
2017-09-17T16:24:30.540Z,82.50
2017-09-17T16:27:33.653Z,87.30
2017-09-17T16:30:35.665Z,86.40
2017-09-17T16:33:38.170Z,86.70
2017-09-17T16:36:40.110Z,86.60
2017-09-17T16:39:42.412Z,87.20
2017-09-17T16:42:44.355Z,86.50
2017-09-17T16:45:48.243Z,84.70
2017-09-17T16:48:50.263Z,85.30
2017-09-17T16:51:52.630Z,87.80
2017-09-17T16:54:55.358Z,90.00
2017-09-17T16:57:59.141Z,87.10
2017-09-17T17:01:01.850Z,89.50
2017-09-17T17:04:04.196Z,89.40
2017-09-17T17:07:06.156Z,90.30
2017-09-17T17:10:08.619Z,90.60
2017-09-17T17:13:11.695Z,90.80
2017-09-17T17:16:14.040Z,90.90
2017-09-17T17:19:16.005Z,90.40
2017-09-17T17:22:18.300Z,90.60
2017-09-17T17:25:21.110Z,91.20
2017-09-17T17:28:23.411Z,90.90
2017-09-17T17:31:25.450Z,90.50
2017-09-17T17:34:27.807Z,90.30
2017-09-17T17:37:29.795Z,90.50
2017-09-17T17:40:32.899Z,91.10
2017-09-17T17:43:34.834Z,91.10
2017-09-17T17:46:37.223Z,91.10
2017-09-17T17:49:39.271Z,90.30
2017-09-17T17:52:41.629Z,90.20
2017-09-17T17:55:44.509Z,90.10
2017-09-17T17:58:46.850Z,90.20
2017-09-17T18:01:48.788Z,90.40
2017-09-17T18:04:51.145Z,90.30
2017-09-17T18:07:53.102Z,90.50
2017-09-17T18:10:55.490Z,90.30
2017-09-17T18:13:57.422Z,90.40
2017-09-17T18:16:59.773Z,90.50
2017-09-17T18:20:01.718Z,90.60
2017-09-17T18:23:04.133Z,90.80
2017-09-17T18:26:06.936Z,90.90
2017-09-17T18:29:09.304Z,91.00
2017-09-17T18:32:11.542Z,91.10
2017-09-17T18:35:13.924Z,91.10
2017-09-17T18:38:15.973Z,90.70
2017-09-17T18:41:18.416Z,90.60
2017-09-17T18:44:20.370Z,90.80
2017-09-17T18:47:22.737Z,90.80
2017-09-17T18:50:24.784Z,91.00
2017-09-17T18:53:27.136Z,90.60
2017-09-17T18:56:29.201Z,90.90
2017-09-17T18:59:31.636Z,90.80
2017-09-17T19:02:33.697Z,90.70
2017-09-17T19:05:36.055Z,90.60
2017-09-17T19:08:38.228Z,90.50
2017-09-17T19:11:40.560Z,90.60
2017-09-17T19:14:42.599Z,90.70
2017-09-17T19:17:44.979Z,90.70
2017-09-17T19:20:46.903Z,90.60
2017-09-17T19:23:49.260Z,90.70
2017-09-17T19:26:51.200Z,90.80
2017-09-17T19:29:53.577Z,91.00
2017-09-17T19:32:55.551Z,91.20
2017-09-17T19:35:58.769Z,91.10
2017-09-17T19:39:01.591Z,91.20
2017-09-17T19:42:03.919Z,91.20
2017-09-17T19:45:05.868Z,91.00
2017-09-17T19:48:08.239Z,91.10
2017-09-17T19:51:10.200Z,91.00
2017-09-17T19:54:12.561Z,91.10
2017-09-17T19:57:14.598Z,90.90
2017-09-17T20:00:16.934Z,90.90
2017-09-17T20:03:19.888Z,90.80
2017-09-17T20:06:23.003Z,90.80
2017-09-17T20:09:25.038Z,90.80
2017-09-17T20:12:27.409Z,90.90
2017-09-17T20:15:29.472Z,91.00
2017-09-17T20:18:31.840Z,91.10
2017-09-17T20:21:33.779Z,91.20
2017-09-17T20:24:36.146Z,91.40
2017-09-17T20:27:38.372Z,91.50
2017-09-17T20:30:40.751Z,91.60
2017-09-17T20:33:42.780Z,91.60
2017-09-17T20:36:45.137Z,91.80
2017-09-17T20:39:47.082Z,91.90
2017-09-17T20:42:49.413Z,92.00
2017-09-17T20:45:52.204Z,92.10
2017-09-17T20:48:54.572Z,92.10
2017-09-17T20:51:56.514Z,92.00
2017-09-17T20:54:58.880Z,92.00
2017-09-17T20:58:00.929Z,92.10
2017-09-17T21:01:03.296Z,92.00
2017-09-17T21:04:05.327Z,92.00
2017-09-17T21:07:07.706Z,91.90
2017-09-17T21:10:09.653Z,91.90
2017-09-17T21:13:12.014Z,91.90
2017-09-17T21:16:14.039Z,92.00
2017-09-17T21:19:16.491Z,92.00
2017-09-17T21:22:18.460Z,92.00
2017-09-17T21:25:20.918Z,92.00
2017-09-17T21:28:22.984Z,92.00
2017-09-17T21:31:25.336Z,92.00
2017-09-17T21:34:27.397Z,91.90
2017-09-17T21:37:29.728Z,91.90
2017-09-17T21:40:31.780Z,91.80
2017-09-17T21:43:34.130Z,91.70
2017-09-17T21:46:36.210Z,91.80
2017-09-17T21:49:38.581Z,91.90
2017-09-17T21:52:40.518Z,92.00
2017-09-17T21:55:42.847Z,92.10
2017-09-17T21:58:44.794Z,92.10
2017-09-17T22:01:47.177Z,92.20
2017-09-17T22:04:49.303Z,92.30
2017-09-17T22:07:51.693Z,92.80
2017-09-17T22:10:53.676Z,92.90
2017-09-17T22:13:56.887Z,93.10
2017-09-17T22:16:58.842Z,93.10
2017-09-17T22:20:01.197Z,93.20
2017-09-17T22:23:03.150Z,93.20
2017-09-17T22:26:05.490Z,93.10
2017-09-17T22:29:07.421Z,93.10
2017-09-17T22:32:10.522Z,93.20
2017-09-17T22:35:12.532Z,93.20
2017-09-17T22:38:15.580Z,93.40
2017-09-17T22:41:17.601Z,93.30
2017-09-17T22:44:20.625Z,93.40
2017-09-17T22:47:23.329Z,93.50
2017-09-17T22:50:25.674Z,93.50
2017-09-17T22:53:30.657Z,93.50
2017-09-17T22:56:33.176Z,93.60
2017-09-17T22:59:35.252Z,94.00
2017-09-17T23:02:37.590Z,93.50
2017-09-17T23:05:39.511Z,93.50
2017-09-17T23:08:42.074Z,93.50
2017-09-17T23:11:44.044Z,93.50
2017-09-17T23:14:46.511Z,93.50
2017-09-17T23:17:48.527Z,93.40
2017-09-17T23:20:50.791Z,93.40
2017-09-17T23:23:52.746Z,93.30
2017-09-17T23:26:55.132Z,93.30
2017-09-17T23:29:57.059Z,93.30
2017-09-17T23:33:00.137Z,93.30
2017-09-17T23:36:02.068Z,93.30
2017-09-17T23:39:04.442Z,93.30
2017-09-17T23:42:06.377Z,93.30
2017-09-17T23:45:08.768Z,93.30
2017-09-17T23:48:10.747Z,93.30
2017-09-17T23:51:13.860Z,93.50
2017-09-17T23:54:15.836Z,93.40
2017-09-17T23:57:18.196Z,93.50
